Time;durP1;ratioP1;P1;durP2;ratioP2;P2;SDS_P1;SDS_P2;PMS_P1;PMS_P2;Temp;Humidity;BMP_temperature;BMP_pressure;BME280_temperature;BME280_humidity;BME280_pressure;Samples;Min_cycle;Max_cycle;Signal;HPM_P1;HPM_P2
2022/07/20 00:00:27;;;;;;;;;;;20.40;62.70;;;19.78;57.73;96833.44;4267702;33;20305;-83
2022/07/20 00:02:55;;;;;;;;;;;20.40;61.90;;;19.77;57.38;96826.22;4292116;33;20063;-83
2022/07/20 00:05:24;;;;;;;;;;;20.40;62.00;;;19.77;57.80;96837.34;4292665;33;19902;-83
2022/07/20 00:07:52;;;;;;;;;;;20.40;62.00;;;19.77;57.56;96842.91;4291642;33;19913;-82
2022/07/20 00:13:08;;;;;;;;;;;20.40;61.90;;;19.77;57.53;96837.34;4291196;33;19901;-84
2022/07/20 00:15:37;;;;;;;;;;;20.40;61.90;;;19.76;57.64;96841.25;4291544;33;19962;-83
2022/07/20 00:18:06;;;;;;;;;;;20.40;61.90;;;19.76;57.63;96838.47;4292657;33;20026;-83
2022/07/20 00:20:35;;;;;;;;;;;20.40;61.90;;;19.75;57.77;96847.94;4291570;33;19951;-84
2022/07/20 00:23:04;;;;;;;;;;;20.40;61.90;;;19.73;57.38;96837.16;4290794;33;20110;-84
2022/07/20 00:25:33;;;;;;;;;;;20.40;61.90;;;19.74;57.65;96837.97;4291501;33;19996;-84
2022/07/20 00:28:01;;;;;;;;;;;20.40;62.00;;;19.73;57.33;96842.72;4291423;33;20396;-84
2022/07/20 00:30:31;;;;;;;;;;;20.30;61.90;;;19.74;57.35;96837.97;4267318;33;19920;-83
2022/07/20 00:33:00;;;;;;;;;;;20.40;61.90;;;19.74;57.27;96837.97;4289838;33;19942;-83
2022/07/20 00:35:28;;;;;;;;;;;20.30;62.00;;;19.71;57.88;96833.88;4291243;33;19905;-82
2022/07/20 00:37:57;;;;;;;;;;;20.30;62.10;;;19.72;57.21;96829.13;4292073;33;19901;-83
2022/07/20 00:40:25;;;;;;;;;;;20.30;61.90;;;19.72;57.33;96829.13;4292237;33;19902;-83
2022/07/20 00:42:54;;;;;;;;;;;20.30;61.90;;;19.71;57.47;96833.88;4291665;33;19902;-83
2022/07/20 00:45:22;;;;;;;;;;;20.30;62.10;;;19.71;57.39;96833.03;4291166;33;19975;-83
2022/07/20 00:47:52;;;;;;;;;;;20.30;62.00;;;19.70;57.72;96823.88;4292027;33;19901;-83
2022/07/20 00:50:21;;;;;;;;;;;20.30;62.00;;;19.71;57.72;96841.38;4290850;33;19909;-84
2022/07/20 00:52:49;;;;;;;;;;;20.30;62.10;;;19.70;57.64;96842.50;4290531;33;19928;-83
2022/07/20 00:55:18;;;;;;;;;;;20.30;62.00;;;19.69;57.60;96843.63;4292033;33;19901;-84
2022/07/20 00:57:46;;;;;;;;;;;20.30;62.10;;;19.69;57.60;96846.41;4292161;33;19909;-84
2022/07/20 01:00:16;;;;;;;;;;;20.30;62.00;;;19.69;57.57;96851.97;4291960;33;19931;-83
2022/07/20 01:02:44;;;;;;;;;;;20.30;62.00;;;19.68;57.40;96845.59;4290496;33;19908;-84
2022/07/20 01:05:14;;;;;;;;;;;20.30;61.90;;;19.67;57.86;96832.03;4266726;33;19908;-84
2022/07/20 01:07:44;;;;;;;;;;;20.30;62.00;;;19.67;57.70;96832.03;4291875;33;19901;-83
2022/07/20 01:10:13;;;;;;;;;;;20.30;62.00;;;19.67;57.38;96841.19;4291744;33;20468;-84
2022/07/20 01:12:44;;;;;;;;;;;20.30;62.00;;;19.68;57.46;96844.78;4291391;33;20240;-84
2022/07/20 01:15:12;;;;;;;;;;;20.30;62.00;;;19.67;57.81;96830.06;4291771;33;19901;-83
2022/07/20 01:17:41;;;;;;;;;;;20.30;62.10;;;19.67;57.61;96820.94;4290993;33;20447;-84
2022/07/20 01:20:15;;;;;;;;;;;20.30;62.20;;;19.66;57.58;96824.84;4290834;33;20124;-83
2022/07/20 01:22:45;;;;;;;;;;;20.30;62.10;;;19.64;57.79;96822.34;4291171;33;20201;-83
2022/07/20 01:25:14;;;;;;;;;;;20.30;62.20;;;19.65;57.47;96823.19;4266521;33;19901;-83
2022/07/20 01:27:42;;;;;;;;;;;20.30;62.00;;;19.63;57.68;96832.66;4291760;33;19901;-83
2022/07/20 01:30:12;;;;;;;;;;;20.30;62.00;;;19.64;57.47;96830.69;4291576;33;19902;-83
2022/07/20 01:32:41;;;;;;;;;;;20.30;62.00;;;19.63;57.86;96843.78;4290231;33;20039;-82
2022/07/20 01:35:10;;;;;;;;;;;20.30;62.10;;;19.63;57.59;96832.66;4291541;33;19902;-82
2022/07/20 01:37:38;;;;;;;;;;;20.30;62.20;;;19.62;57.83;96819.91;4266355;33;20128;-83
2022/07/20 01:40:10;;;;;;;;;;;20.20;62.00;;;19.62;57.56;96832.97;4291327;33;19902;-83
2022/07/20 01:42:39;;;;;;;;;;;20.30;62.00;;;19.61;57.53;96832.16;4290964;33;20230;-83
2022/07/20 01:45:08;;;;;;;;;;;20.20;62.00;;;19.62;57.61;96831.00;4291298;33;19912;-83
2022/07/20 01:47:37;;;;;;;;;;;20.30;62.10;;;19.60;57.87;96833.28;4291408;33;19902;-83
2022/07/20 01:50:07;;;;;;;;;;;20.20;62.10;;;19.59;57.82;96830.81;4291363;33;19907;-83
2022/07/20 01:52:36;;;;;;;;;;;20.20;62.00;;;19.58;57.80;96841.09;4291237;33;19901;-83
2022/07/20 01:55:05;;;;;;;;;;;20.20;62.00;;;19.59;57.65;96841.94;4290509;33;20161;-83
2022/07/20 01:57:35;;;;;;;;;;;20.20;62.00;;;19.58;57.74;96835.53;4291458;33;20078;-84
2022/07/20 02:00:06;;;;;;;;;;;20.20;61.90;;;19.59;57.87;96830.81;4291350;33;19901;-84
2022/07/20 02:02:40;;;;;;;;;;;20.20;62.00;;;19.58;57.40;96835.53;4290336;33;19901;-84
2022/07/20 02:05:09;;;;;;;;;;;20.20;62.00;;;19.58;57.71;96835.53;4290269;33;19909;-84
2022/07/20 02:07:38;;;;;;;;;;;20.20;62.00;;;19.57;57.56;96831.13;4291256;33;20132;-84
2022/07/20 02:10:08;;;;;;;;;;;20.20;62.10;;;19.56;57.55;96837.81;4291355;33;20157;-83
2022/07/20 02:12:38;;;;;;;;;;;20.20;62.00;;;19.56;57.79;96835.03;4290634;33;19953;-83
2022/07/20 02:15:09;;;;;;;;;;;20.20;62.00;;;19.55;57.45;96830.66;4291134;33;19909;-84
2022/07/20 02:17:38;;;;;;;;;;;20.20;61.90;;;19.55;57.42;96836.19;4291218;33;19924;-83
2022/07/20 02:20:09;;;;;;;;;;;20.20;62.00;;;19.55;57.58;96841.75;4291163;33;19901;-83
2022/07/20 02:22:37;;;;;;;;;;;20.20;62.00;;;19.54;57.88;96834.56;4290600;33;20038;-83
2022/07/20 02:25:07;;;;;;;;;;;20.20;62.10;;;19.53;57.72;96841.25;4290666;33;20012;-83
2022/07/20 02:27:36;;;;;;;;;;;20.20;61.90;;;19.53;57.93;96832.91;4265026;33;19901;-83
2022/07/20 02:30:08;;;;;;;;;;;20.20;62.10;;;19.54;57.63;96836.50;4289960;33;20231;-83
2022/07/20 02:32:36;;;;;;;;;;;20.10;62.20;;;19.52;57.54;96828.47;4290582;33;19943;-83
2022/07/20 02:35:06;;;;;;;;;;;20.20;62.10;;;19.53;57.93;96826.50;4290958;33;19901;-82
2022/07/20 02:37:34;;;;;;;;;;;20.10;62.20;;;19.52;57.86;96828.47;4290089;33;20209;-83
2022/07/20 02:40:03;;;;;;;;;;;20.10;62.20;;;19.51;57.74;96826.84;4291178;33;20175;-83
2022/07/20 02:42:32;;;;;;;;;;;20.10;62.20;;;19.51;57.90;96828.78;4290396;33;19909;-82
2022/07/20 02:45:00;;;;;;;;;;;20.10;62.30;;;19.51;57.96;96829.63;4290719;33;19909;-83
2022/07/20 02:47:30;;;;;;;;;;;20.10;62.20;;;19.50;57.65;96827.97;4290621;33;19901;-82
2022/07/20 02:50:01;;;;;;;;;;;20.10;62.10;;;19.51;58.01;96824.06;4289555;33;20132;-83
2022/07/20 02:52:29;;;;;;;;;;;20.10;62.30;;;19.49;57.65;96826.31;4290286;33;19901;-83
2022/07/20 02:54:58;;;;;;;;;;;20.10;62.20;;;19.50;57.85;96822.41;4290613;33;19902;-82
2022/07/20 02:57:26;;;;;;;;;;;20.10;62.20;;;19.49;57.77;96826.31;4289845;33;20133;-84
2022/07/20 02:59:55;;;;;;;;;;;20.10;62.20;;;19.49;57.74;96831.06;4290527;33;20219;-83
2022/07/20 03:02:23;;;;;;;;;;;20.10;62.20;;;19.48;57.91;96824.69;4290145;33;19901;-83
2022/07/20 03:04:53;;;;;;;;;;;20.10;62.20;;;19.48;57.99;96830.22;4290404;33;20231;-82
2022/07/20 03:07:22;;;;;;;;;;;20.10;62.30;;;19.48;57.83;96821.91;4289652;33;20128;-82
2022/07/20 03:09:50;;;;;;;;;;;20.10;62.20;;;19.47;57.93;96829.44;4265429;33;19901;-82
2022/07/20 03:12:19;;;;;;;;;;;20.10;62.30;;;19.46;57.84;96822.22;4289703;33;19924;-83
2022/07/20 03:14:48;;;;;;;;;;;20.10;62.20;;;19.47;57.80;96828.59;4268105;33;20125;-83
2022/07/20 03:17:17;;;;;;;;;;;20.10;62.10;;;19.46;57.50;96832.50;4292926;33;19902;-83
2022/07/20 03:19:45;;;;;;;;;;;20.10;62.30;;;19.46;58.00;96832.50;4292145;33;20310;-82
2022/07/20 03:22:15;;;;;;;;;;;20.10;62.30;;;19.46;57.95;96832.50;4291546;33;19902;-82
2022/07/20 03:24:44;;;;;;;;;;;20.10;62.30;;;19.46;57.72;96825.00;4293191;33;20111;-82
2022/07/20 03:27:12;;;;;;;;;;;20.10;62.20;;;19.47;57.87;96834.16;4293151;33;19988;-82
2022/07/20 03:29:41;;;;;;;;;;;20.10;62.20;;;19.47;57.68;96837.75;4291968;33;19902;-82
2022/07/20 03:32:10;;;;;;;;;;;20.10;62.20;;;19.47;58.02;96834.16;4292572;33;19901;-83
2022/07/20 03:34:38;;;;;;;;;;;20.10;62.40;;;19.49;57.58;96834.66;4292913;33;19908;-83
2022/07/20 03:37:07;;;;;;;;;;;20.10;62.20;;;19.49;57.69;96843.00;4292180;33;19901;-83
2022/07/20 03:39:37;;;;;;;;;;;20.10;62.00;;;19.50;57.72;96841.84;4293072;33;20032;-83
2022/07/20 03:42:06;;;;;;;;;;;20.10;62.00;;;19.51;57.45;96840.72;4292307;33;19901;-82
2022/07/20 03:44:36;;;;;;;;;;;20.10;62.00;;;19.51;57.49;96840.72;4267605;33;19971;-82
2022/07/20 03:47:05;;;;;;;;;;;20.10;61.70;;;19.54;57.31;96845.66;4292057;33;20085;-83
2022/07/20 03:49:35;;;;;;;;;;;20.20;61.60;;;19.53;57.23;96844.00;4292009;33;19924;-83
2022/07/20 03:52:05;;;;;;;;;;;20.20;61.60;;;19.54;56.98;96845.66;4292327;33;20134;-82
2022/07/20 03:54:33;;;;;;;;;;;20.20;61.50;;;19.55;57.18;96841.75;4291818;33;19909;-83
2022/07/20 03:57:03;;;;;;;;;;;20.20;61.20;;;19.58;57.14;96851.41;4291688;33;19902;-83
2022/07/20 03:59:33;;;;;;;;;;;20.20;61.10;;;19.58;56.85;96846.66;4291887;33;19901;-83
2022/07/20 04:02:02;;;;;;;;;;;20.20;61.10;;;19.60;56.98;96849.13;4292203;33;20041;-83
2022/07/20 04:04:30;;;;;;;;;;;20.20;60.90;;;19.61;56.85;96851.59;4292235;33;20194;-83
2022/07/20 04:06:59;;;;;;;;;;;20.30;61.20;;;19.62;56.38;96849.66;4291616;33;19909;-84
2022/07/20 04:09:46;;;;;;;;;;;20.30;61.10;;;19.64;56.94;96850.13;4292539;33;20087;-81
2022/07/20 04:12:18;;;;;;;;;;;20.30;61.00;;;19.65;56.58;96850.97;4266956;33;19901;-83
2022/07/20 04:14:46;;;;;;;;;;;20.30;60.90;;;19.66;56.33;96847.88;4291539;33;20217;-83
2022/07/20 04:17:15;;;;;;;;;;;20.30;60.60;;;19.68;56.45;96839.25;4292513;33;20132;-82
2022/07/20 04:19:44;;;;;;;;;;;20.30;60.50;;;19.69;56.44;96849.19;4291490;33;19908;-83
2022/07/20 04:22:20;;;;;;;;;;;20.30;60.60;;;19.69;56.25;96847.25;4290894;33;19901;-83
2022/07/20 04:24:48;;;;;;;;;;;20.30;60.60;;;19.71;56.57;96858.88;4290781;33;20304;-83
2022/07/20 04:27:18;;;;;;;;;;;20.40;60.60;;;19.73;56.22;96847.44;4291402;33;20221;-83
2022/07/20 04:29:47;;;;;;;;;;;20.40;60.50;;;19.74;56.16;96846.28;4291366;33;19930;-83
2022/07/20 04:32:18;;;;;;;;;;;20.40;60.30;;;19.77;56.51;96842.91;4291828;33;20104;-83
2022/07/20 04:34:47;;;;;;;;;;;20.40;60.60;;;19.77;56.64;96848.44;4292187;33;20016;-83
2022/07/20 04:37:15;;;;;;;;;;;20.40;60.80;;;19.79;56.69;96851.75;4292194;33;19902;-83
2022/07/20 04:39:44;;;;;;;;;;;20.40;61.10;;;19.81;57.06;96860.59;4291336;33;20175;-83
2022/07/20 04:42:12;;;;;;;;;;;20.50;61.60;;;19.83;57.81;96858.28;4266540;33;20085;-83
2022/07/20 04:44:42;;;;;;;;;;;20.50;62.10;;;19.84;58.19;96854.38;4291186;33;20208;-84
2022/07/20 04:47:11;;;;;;;;;;;20.50;62.50;;;19.85;58.46;96850.47;4291965;33;19901;-84
2022/07/20 04:49:39;;;;;;;;;;;20.50;62.60;;;19.87;58.57;96853.78;4291174;33;19901;-84
2022/07/20 04:52:08;;;;;;;;;;;20.50;62.80;;;19.89;58.22;96851.53;4291559;33;20095;-84
2022/07/20 04:54:36;;;;;;;;;;;20.50;62.90;;;19.91;58.56;96852.03;4267074;33;20075;-82
2022/07/20 04:57:05;;;;;;;;;;;20.60;62.70;;;19.92;58.15;96856.44;4292044;33;19994;-82
2022/07/20 04:59:34;;;;;;;;;;;20.60;62.70;;;19.95;58.46;96854.16;4290929;33;20046;-82
2022/07/20 05:02:04;;;;;;;;;;;20.60;63.00;;;19.96;58.63;96848.31;4291512;33;20111;-83
2022/07/20 05:04:32;;;;;;;;;;;20.60;62.80;;;19.99;58.62;96855.19;4291881;33;20080;-83
2022/07/20 05:07:01;;;;;;;;;;;20.60;62.80;;;20.01;58.43;96861.25;4290980;33;19901;-83
2022/07/20 05:09:32;;;;;;;;;;;20.70;63.00;;;20.02;58.74;96862.88;4291039;33;20029;-83
2022/07/20 05:12:01;;;;;;;;;;;20.70;63.00;;;20.03;58.23;96875.66;4290148;33;19914;-82
2022/07/20 05:14:29;;;;;;;;;;;20.70;62.80;;;20.05;58.46;96867.81;4266781;33;20109;-83
2022/07/20 05:16:58;;;;;;;;;;;20.70;62.70;;;20.05;58.06;96863.06;4291778;33;19902;-83
2022/07/20 05:19:28;;;;;;;;;;;20.70;62.80;;;20.06;58.40;96866.69;4285898;33;20384;-83
2022/07/20 05:21:57;;;;;;;;;;;20.70;62.60;;;20.06;58.20;96867.50;4262176;33;20129;-83
2022/07/20 05:24:25;;;;;;;;;;;20.70;62.70;;;20.07;58.20;96876.66;4262801;33;20068;-83
2022/07/20 05:26:54;;;;;;;;;;;20.70;62.60;;;20.07;58.19;96873.88;4262660;33;19993;-83
2022/07/20 05:29:23;;;;;;;;;;;20.70;62.50;;;20.06;58.04;96873.06;4261858;33;19953;-83
2022/07/20 05:31:51;;;;;;;;;;;20.70;62.50;;;20.06;57.54;96866.69;4260977;33;19902;-82
2022/07/20 05:34:20;;;;;;;;;;;20.70;62.10;;;20.07;58.07;96873.88;4292132;32;19901;-83
2022/07/20 05:36:50;;;;;;;;;;;20.70;62.20;;;20.08;57.54;96876.34;4290477;33;19901;-83
2022/07/20 05:39:19;;;;;;;;;;;20.70;62.00;;;20.11;58.22;96874.06;4291608;33;20120;-83
2022/07/20 05:41:48;;;;;;;;;;;20.70;62.70;;;20.11;58.06;96877.66;4290928;33;19901;-83
2022/07/20 05:44:17;;;;;;;;;;;20.80;62.70;;;20.13;58.11;96871.81;4290403;33;19901;-83
2022/07/20 05:46:45;;;;;;;;;;;20.80;62.60;;;20.14;58.46;96862.31;4291283;33;19902;-83
2022/07/20 05:49:14;;;;;;;;;;;20.80;62.70;;;20.16;57.96;96871.16;4266387;33;19960;-83
2022/07/20 05:51:42;;;;;;;;;;;20.80;62.40;;;20.18;57.98;96868.88;4290003;33;19961;-84
2022/07/20 05:54:12;;;;;;;;;;;20.80;62.40;;;20.19;58.02;96865.81;4290406;33;19909;-84
2022/07/20 05:56:41;;;;;;;;;;;20.80;62.50;;;20.21;57.97;96874.63;4291239;33;20107;-85
2022/07/20 05:59:09;;;;;;;;;;;20.80;62.40;;;20.24;58.05;96865.66;4291287;33;19909;-84
2022/07/20 06:01:43;;;;;;;;;;;20.90;63.30;;;20.27;57.64;96855.84;4289663;33;19901;-83
2022/07/20 06:04:12;;;;;;;;;;;20.90;62.20;;;20.31;57.61;96861.63;4290430;33;20002;-84
2022/07/20 06:06:40;;;;;;;;;;;20.90;62.00;;;20.32;57.90;96864.06;4291107;33;19901;-84
2022/07/20 06:09:09;;;;;;;;;;;20.90;62.40;;;20.34;57.92;96860.94;4291324;33;20097;-83
2022/07/20 06:11:39;;;;;;;;;;;21.00;62.20;;;20.38;57.48;96859.19;4289615;33;20402;-85
2022/07/20 06:14:08;;;;;;;;;;;21.00;62.00;;;20.42;57.61;96862.16;4291286;33;19909;-83
2022/07/20 06:16:38;;;;;;;;;;;21.00;62.20;;;20.43;57.95;96866.56;4290699;33;23002;-82
2022/07/20 06:19:07;;;;;;;;;;;21.10;62.30;;;20.45;58.13;96864.28;4291524;33;20145;-83
2022/07/20 06:21:36;;;;;;;;;;;21.10;62.30;;;20.45;58.01;96865.13;4290583;33;19908;-84
2022/07/20 06:24:05;;;;;;;;;;;21.10;62.30;;;20.47;57.87;96865.59;4290200;33;19902;-84
2022/07/20 06:26:34;;;;;;;;;;;21.10;62.30;;;20.48;57.74;96861.69;4290231;33;19926;-83
2022/07/20 06:29:04;;;;;;;;;;;21.10;62.40;;;20.48;57.88;96861.69;4291083;33;20074;-83
2022/07/20 06:31:32;;;;;;;;;;;21.10;62.30;;;20.50;57.89;96862.19;4290465;33;19902;-84
2022/07/20 06:34:02;;;;;;;;;;;21.10;62.20;;;20.51;57.91;96863.03;4290004;33;20236;-84
2022/07/20 06:36:56;;;;;;;;;;;21.10;62.20;;;20.52;57.83;96867.47;4291082;33;20016;-84
2022/07/20 06:39:25;;;;;;;;;;;21.10;62.10;;;20.52;57.58;96856.34;4291082;33;19901;-82
2022/07/20 06:41:54;;;;;;;;;;;21.10;62.00;;;20.53;57.74;96864.34;4290357;33;20110;-85
2022/07/20 06:44:24;;;;;;;;;;;21.20;61.90;;;20.54;57.97;96873.50;4290896;33;20139;-84
2022/07/20 06:46:52;;;;;;;;;;;21.20;62.00;;;20.55;57.59;96866.81;4290636;33;19901;-83
2022/07/20 06:49:21;;;;;;;;;;;21.20;61.90;;;20.55;57.57;96861.22;4292634;33;19902;-84
2022/07/20 06:51:49;;;;;;;;;;;21.20;61.90;;;20.58;57.53;96857.00;4316429;32;19901;-83
2022/07/20 06:54:18;;;;;;;;;;;21.20;61.90;;;20.61;57.68;96859.13;4292497;33;20213;-84
2022/07/20 06:56:46;;;;;;;;;;;21.20;61.90;;;20.63;57.52;96860.47;4292507;33;20239;-83
2022/07/20 06:59:15;;;;;;;;;;;21.20;61.70;;;20.64;57.49;96853.78;4293101;33;19908;-83
2022/07/20 07:01:45;;;;;;;;;;;21.30;61.70;;;20.67;57.16;96853.09;4292745;32;20019;-84
2022/07/20 07:04:14;;;;;;;;;;;21.30;61.70;;;20.71;57.27;96847.75;4293337;33;20325;-84
2022/07/20 07:06:42;;;;;;;;;;;21.30;61.70;;;20.74;57.38;96851.84;4292428;33;20130;-85
2022/07/20 07:09:11;;;;;;;;;;;21.30;61.70;;;20.76;57.13;96850.41;4293201;33;20140;-84
2022/07/20 07:11:39;;;;;;;;;;;21.30;61.40;;;20.79;56.96;96857.28;4267639;33;20236;-84
2022/07/20 07:14:08;;;;;;;;;;;21.40;61.40;;;20.81;56.95;96841.91;4292244;33;19924;-84
2022/07/20 07:16:36;;;;;;;;;;;21.40;61.30;;;20.84;57.11;96855.19;4292213;32;19901;-84
2022/07/20 07:19:06;;;;;;;;;;;21.40;61.30;;;20.85;57.04;96848.47;4293156;33;19901;-82
2022/07/20 07:21:35;;;;;;;;;;;21.40;61.30;;;20.87;56.57;96850.94;4292707;33;19996;-83
2022/07/20 07:24:04;;;;;;;;;;;21.50;61.20;;;20.88;56.87;96846.19;4292015;33;19996;-84
2022/07/20 07:26:33;;;;;;;;;;;21.50;61.10;;;20.89;56.78;96848.66;4293102;33;19984;-83
2022/07/20 07:29:01;;;;;;;;;;;21.50;61.00;;;20.90;56.78;96841.13;4292934;33;20117;-82
2022/07/20 07:31:30;;;;;;;;;;;21.50;61.00;;;20.90;56.74;96847.53;4292591;33;20380;-83
2022/07/20 07:33:59;;;;;;;;;;;21.50;61.00;;;20.91;56.88;96840.81;4291821;33;19901;-83
2022/07/20 07:36:28;;;;;;;;;;;21.50;60.90;;;20.91;56.78;96840.81;4293040;33;19909;-84
2022/07/20 07:38:57;;;;;;;;;;;21.50;60.80;;;20.92;56.64;96836.06;4291920;33;19923;-84
2022/07/20 07:41:25;;;;;;;;;;;21.50;60.90;;;20.93;56.58;96832.94;4292463;33;19916;-84
2022/07/20 07:43:54;;;;;;;;;;;21.50;60.80;;;20.94;56.51;96836.56;4292792;33;19909;-84
2022/07/20 07:46:23;;;;;;;;;;;21.50;60.90;;;20.95;56.63;96829.84;4291849;33;20371;-84
2022/07/20 07:48:51;;;;;;;;;;;21.50;60.80;;;20.95;56.68;96835.41;4291762;33;20155;-85
2022/07/20 07:51:20;;;;;;;;;;;21.50;60.80;;;20.96;56.64;96828.72;4291238;33;19901;-84
2022/07/20 07:53:50;;;;;;;;;;;21.50;60.80;;;20.97;56.71;96827.56;4292705;33;19924;-83
2022/07/20 07:56:18;;;;;;;;;;;21.50;60.70;;;20.98;56.61;96823.63;4292841;33;20288;-83
2022/07/20 07:58:47;;;;;;;;;;;21.50;60.80;;;20.98;56.63;96829.19;4290756;33;20012;-83
2022/07/20 08:01:15;;;;;;;;;;;21.60;61.60;;;20.98;56.40;96816.09;4291417;33;19901;-84
2022/07/20 08:03:44;;;;;;;;;;;21.60;60.70;;;21.00;56.51;96826.91;4267307;33;19901;-84
2022/07/20 08:06:12;;;;;;;;;;;21.60;60.80;;;21.00;56.53;96829.69;4292620;33;19901;-83
2022/07/20 08:08:41;;;;;;;;;;;21.60;60.70;;;21.01;56.70;96828.53;4291537;33;19905;-83
2022/07/20 08:11:11;;;;;;;;;;;21.60;60.80;;;21.00;56.62;96822.16;4291529;33;19902;-84
2022/07/20 08:13:39;;;;;;;;;;;21.60;60.80;;;21.00;56.67;96815.75;4292216;33;19908;-83
2022/07/20 08:16:08;;;;;;;;;;;21.60;60.70;;;21.02;56.60;96818.25;4291582;33;20132;-84
2022/07/20 08:18:37;;;;;;;;;;;21.60;60.80;;;21.00;56.53;96818.53;4292439;33;19990;-84
2022/07/20 08:21:06;;;;;;;;;;;21.60;60.80;;;21.02;56.61;96816.25;4292582;33;19908;-84
2022/07/20 08:23:34;;;;;;;;;;;21.60;60.80;;;21.00;56.68;96813.81;4291689;33;20128;-84
2022/07/20 08:26:03;;;;;;;;;;;21.60;60.80;;;20.99;56.76;96820.53;4292381;33;20145;-84
2022/07/20 08:28:33;;;;;;;;;;;21.60;60.90;;;20.99;56.66;96819.69;4292218;33;19901;-83
2022/07/20 08:31:01;;;;;;;;;;;21.60;60.80;;;20.98;57.05;96809.69;4267208;33;19908;-84
2022/07/20 08:33:30;;;;;;;;;;;21.60;61.00;;;20.97;56.85;96802.53;4290742;33;19901;-84
2022/07/20 08:35:59;;;;;;;;;;;21.60;61.00;;;20.96;57.07;96803.66;4292070;32;19901;-83
2022/07/20 08:38:28;;;;;;;;;;;21.50;61.10;;;20.94;56.99;96805.94;4267093;33;20133;-83
2022/07/20 08:40:56;;;;;;;;;;;21.60;61.10;;;20.93;56.99;96804.31;4292220;33;20159;-82
2022/07/20 08:43:25;;;;;;;;;;;21.50;61.10;;;20.93;57.05;96807.09;4291603;33;19923;-83
2022/07/20 08:45:55;;;;;;;;;;;21.60;61.10;;;20.91;57.23;96806.59;4292183;33;19930;-86
2022/07/20 08:48:24;;;;;;;;;;;21.50;62.10;;;20.90;57.09;96794.66;4292088;33;20084;-83
2022/07/20 08:50:52;;;;;;;;;;;21.50;61.30;;;20.90;57.17;96799.38;4292158;33;20150;-83
2022/07/20 08:53:21;;;;;;;;;;;21.50;61.30;;;20.89;57.38;96798.56;4290673;33;19923;-83
2022/07/20 08:55:49;;;;;;;;;;;21.50;61.40;;;20.88;57.10;96796.09;4292055;33;19909;-82
2022/07/20 08:58:18;;;;;;;;;;;21.50;61.30;;;20.87;57.10;96798.06;4266929;33;19901;-83
2022/07/20 09:00:46;;;;;;;;;;;21.50;61.30;;;20.87;57.12;96800.00;4292293;33;19902;-83
2022/07/20 09:03:16;;;;;;;;;;;21.50;61.40;;;20.86;57.28;96799.22;4290151;33;20290;-85
2022/07/20 09:05:45;;;;;;;;;;;21.50;61.50;;;20.87;57.43;96794.44;4291703;32;20107;-83
2022/07/20 09:08:15;;;;;;;;;;;21.50;61.50;;;20.85;57.38;96787.25;4266645;33;20097;-83
2022/07/20 09:10:46;;;;;;;;;;;21.50;61.50;;;20.85;57.41;96790.03;4291748;33;20079;-83
2022/07/20 09:13:17;;;;;;;;;;;21.50;61.50;;;20.84;57.15;96788.41;4291310;33;19909;-84
2022/07/20 09:15:47;;;;;;;;;;;21.50;61.60;;;20.85;57.34;96792.00;4291825;33;19901;-84
2022/07/20 09:18:19;;;;;;;;;;;21.50;61.60;;;20.83;57.61;96789.56;4290978;33;20087;-85
2022/07/20 09:20:50;;;;;;;;;;;21.50;61.60;;;20.83;57.47;96781.19;4290913;33;20124;-83
2022/07/20 09:23:19;;;;;;;;;;;21.50;61.70;;;20.84;57.38;96790.34;4291382;33;20432;-83
2022/07/20 09:26:07;;;;;;;;;;;21.50;61.70;;;20.83;57.49;96786.78;4291612;33;19901;-84
2022/07/20 09:28:38;;;;;;;;;;;21.50;61.70;;;20.82;57.19;96787.91;4290840;33;19902;-84
2022/07/20 09:31:12;;;;;;;;;;;21.50;61.70;;;20.82;57.43;96779.56;4290903;33;19997;-84
2022/07/20 09:34:14;;;;;;;;;;;21.50;61.60;;;20.84;57.47;96779.22;4290463;33;19909;-85
2022/07/20 09:36:44;;;;;;;;;;;21.50;61.70;;;20.83;57.55;96772.03;4290566;33;19919;-85
2022/07/20 09:39:14;;;;;;;;;;;21.50;61.80;;;20.83;57.39;96774.81;4291610;33;20067;-83
2022/07/20 09:41:44;;;;;;;;;;;21.50;61.80;;;20.83;57.37;96772.03;4290274;33;20362;-83
2022/07/20 09:44:22;;;;;;;;;;;21.50;61.80;;;20.83;57.42;96769.25;4291454;33;19981;-84
2022/07/20 09:46:51;;;;;;;;;;;21.50;61.90;;;20.82;57.30;96771.22;4266500;33;20240;-84
2022/07/20 09:49:21;;;;;;;;;;;21.50;61.80;;;20.82;57.65;96770.38;4291424;33;19901;-84
2022/07/20 09:51:58;;;;;;;;;;;21.40;61.80;;;20.82;57.56;96771.22;4289988;33;19946;-84
2022/07/20 09:54:27;;;;;;;;;;;21.50;61.90;;;20.81;57.66;96761.22;4291293;33;19901;-85
2022/07/20 09:56:56;;;;;;;;;;;21.40;61.80;;;20.82;57.59;96759.25;4290395;33;19909;-84
2022/07/20 09:59:24;;;;;;;;;;;21.40;61.90;;;20.82;57.65;96759.25;4290253;33;20144;-84
2022/07/20 10:01:54;;;;;;;;;;;21.40;61.80;;;20.82;57.66;96759.25;4265820;33;19908;-84
2022/07/20 10:04:25;;;;;;;;;;;21.40;61.80;;;20.82;57.71;96759.25;4290962;33;19901;-84
2022/07/20 10:06:54;;;;;;;;;;;21.50;62.00;;;20.82;57.62;96759.25;4290382;33;20032;-82
2022/07/20 10:09:23;;;;;;;;;;;21.50;62.00;;;20.81;57.72;96750.09;4290060;33;19984;-82
2022/07/20 10:11:52;;;;;;;;;;;21.40;61.90;;;20.81;57.65;96747.31;4289700;33;19901;-83
2022/07/20 10:14:20;;;;;;;;;;;21.40;61.90;;;20.81;57.34;96747.31;4291114;33;20192;-83
2022/07/20 10:16:50;;;;;;;;;;;21.50;62.00;;;20.80;57.60;96742.88;4290167;33;19902;-84
2022/07/20 10:19:20;;;;;;;;;;;21.50;62.00;;;20.80;57.76;96751.22;4290171;33;20248;-85
2022/07/20 10:21:51;;;;;;;;;;;21.50;62.10;;;20.80;57.74;96740.09;4288936;33;20138;-84
2022/07/20 10:24:25;;;;;;;;;;;21.40;61.90;;;20.80;57.54;96740.09;4291131;33;20144;-83
2022/07/20 10:26:56;;;;;;;;;;;21.40;61.90;;;20.80;57.79;96726.19;4289998;33;19987;-83
2022/07/20 10:29:32;;;;;;;;;;;21.50;62.00;;;20.80;57.66;96728.13;4291008;33;19901;-84
2022/07/20 10:32:14;;;;;;;;;;;21.50;62.10;;;20.79;57.77;96720.94;4289595;33;20032;-84
2022/07/20 10:34:43;;;;;;;;;;;21.40;62.00;;;20.79;57.70;96707.84;4290967;33;20248;-83
2022/07/20 10:37:31;;;;;;;;;;;21.40;62.00;;;20.78;57.55;96710.97;4290986;33;20163;-84
2022/07/20 10:40:11;;;;;;;;;;;21.40;62.10;;;20.78;57.69;96703.44;4289891;33;19901;-84
2022/07/20 10:42:41;;;;;;;;;;;21.40;62.10;;;20.77;57.96;96701.78;4265324;33;19909;-83
2022/07/20 10:45:29;;;;;;;;;;;21.40;62.10;;;20.77;58.01;96701.78;4290884;33;19902;-83
2022/07/20 10:48:20;;;;;;;;;;;21.40;62.10;;;20.77;57.80;96696.22;4290812;33;20097;-83
2022/07/20 10:50:51;;;;;;;;;;;21.40;62.20;;;20.76;57.92;96691.81;4290894;33;20120;-84
2022/07/20 10:53:32;;;;;;;;;;;21.40;62.10;;;20.76;57.85;96691.81;4290402;33;19964;-84
2022/07/20 10:56:02;;;;;;;;;;;21.40;62.30;;;20.77;57.99;96692.63;4290713;33;20228;-84
2022/07/20 10:58:33;;;;;;;;;;;21.40;62.20;;;20.77;57.88;96700.97;4290000;33;20028;-84
2022/07/20 11:01:03;;;;;;;;;;;21.40;62.20;;;20.75;57.94;96692.94;4290746;33;19901;-83
2022/07/20 11:03:36;;;;;;;;;;;21.40;62.30;;;20.76;57.95;96699.34;4290324;33;20205;-83
2022/07/20 11:06:08;;;;;;;;;;;21.40;62.20;;;20.75;57.92;96687.38;4289638;33;19945;-83
2022/07/20 11:08:39;;;;;;;;;;;21.40;62.30;;;20.76;57.57;96689.03;4289772;33;20153;-83
2022/07/20 11:11:08;;;;;;;;;;;21.40;62.30;;;20.76;58.02;96691.00;4290601;33;20124;-84
2022/07/20 11:13:38;;;;;;;;;;;21.40;63.10;;;20.75;57.97;96687.38;4289425;33;19901;-84
2022/07/20 11:16:07;;;;;;;;;;;21.40;62.30;;;20.76;57.90;96688.22;4314088;32;20004;-84
2022/07/20 11:18:35;;;;;;;;;;;21.40;62.30;;;20.75;58.00;96687.38;4290554;33;19936;-83
2022/07/20 11:21:07;;;;;;;;;;;21.40;62.30;;;20.76;58.10;96691.00;4290467;33;19901;-84
2022/07/20 11:23:46;;;;;;;;;;;21.40;62.30;;;20.76;57.96;96688.22;4289248;33;20009;-84
2022/07/20 11:26:15;;;;;;;;;;;21.40;62.30;;;20.75;58.07;96692.94;4289661;33;20393;-84
2022/07/20 11:28:46;;;;;;;;;;;21.40;62.40;;;20.76;57.98;96699.34;4289615;33;20391;-83
2022/07/20 11:31:15;;;;;;;;;;;21.40;62.40;;;20.76;58.19;96683.47;4290192;33;20263;-83